Time;durP1;ratioP1;P1;durP2;ratioP2;P2;SDS_P1;SDS_P2;PMS_P1;PMS_P2;Temp;Humidity;BMP_temperature;BMP_pressure;BME280_temperature;BME280_humidity;BME280_pressure;Samples;Min_cycle;Max_cycle;Signal;HPM_P1;HPM_P2
2023/07/18 00:01:13;;;;;;;5.13;1.20;;;;;;;16.16;100.00;100925.31;5028298;28;20037;-76
2023/07/18 00:03:59;;;;;;;4.65;0.82;;;;;;;16.13;100.00;100927.91;5018432;28;20086;-78
2023/07/18 00:06:45;;;;;;;5.47;1.08;;;;;;;16.11;100.00;100917.03;5056347;28;20048;-77
2023/07/18 00:09:31;;;;;;;3.42;0.90;;;;;;;16.06;100.00;100917.16;5042942;28;20039;-77
2023/07/18 00:12:17;;;;;;;5.80;0.90;;;;;;;16.05;100.00;100921.94;5039109;28;20075;-77
2023/07/18 00:15:06;;;;;;;5.18;1.20;;;;;;;16.02;100.00;100935.78;5056014;28;20399;-76
2023/07/18 00:17:52;;;;;;;4.20;0.63;;;;;;;15.99;100.00;100928.00;5085565;28;20111;-77
2023/07/18 00:20:38;;;;;;;3.88;0.80;;;;;;;15.95;100.00;100921.38;5082436;28;20111;-77
2023/07/18 00:23:24;;;;;;;2.28;0.70;;;;;;;15.94;100.00;100911.34;5073437;28;20533;-76
2023/07/18 00:26:09;;;;;;;4.45;0.93;;;;;;;15.89;100.00;100914.28;5065625;28;20036;-76
2023/07/18 00:28:55;;;;;;;5.38;1.02;;;;;;;15.86;100.00;100910.97;5076401;28;20079;-77
2023/07/18 00:31:41;;;;;;;3.33;0.90;;;;;;;15.81;100.00;100911.09;5071834;28;20036;-79
2023/07/18 00:34:27;;;;;;;5.97;1.10;;;;;;;15.78;100.00;100908.94;5061437;28;20084;-77
2023/07/18 00:37:13;;;;;;;5.75;1.05;;;;;;;15.74;100.00;100907.06;5064413;28;20128;-77
2023/07/18 00:39:58;;;;;;;5.35;0.90;;;;;;;15.72;100.00;100903.78;5075327;28;20038;-76
2023/07/18 00:42:47;;;;;;;4.70;0.82;;;;;;;15.69;100.00;100901.63;5067874;28;20086;-77
2023/07/18 00:45:33;;;;;;;3.80;0.80;;;;;;;15.65;100.00;100905.00;5087691;28;20036;-77
2023/07/18 00:48:18;;;;;;;4.82;1.00;;;;;;;15.63;100.00;100903.72;5052070;28;20035;-77
2023/07/18 00:51:04;;;;;;;4.65;1.30;;;;;;;15.60;100.00;100895.91;5077097;28;20059;-76
2023/07/18 00:53:51;;;;;;;3.20;0.70;;;;;;;15.58;100.00;100889.84;5069782;28;20511;-76
2023/07/18 00:56:36;;;;;;;3.17;0.70;;;;;;;15.52;100.00;100888.31;5073844;28;20032;-77
2023/07/18 00:59:22;;;;;;;5.47;1.00;;;;;;;15.50;100.00;100896.19;5077903;28;20039;-76
2023/07/18 01:02:09;;;;;;;5.95;1.10;;;;;;;15.48;100.00;100881.69;5080279;28;20053;-76
2023/07/18 01:04:54;;;;;;;4.88;1.00;;;;;;;15.42;100.00;100881.81;5078150;28;20087;-76
2023/07/18 01:07:42;;;;;;;5.15;0.90;;;;;;;15.41;100.00;100882.97;5059382;28;20032;-76
2023/07/18 01:10:28;;;;;;;4.35;0.73;;;;;;;15.35;100.00;100870.25;5044491;28;20089;-76
2023/07/18 01:13:14;;;;;;;3.75;1.15;;;;;;;15.32;100.00;100870.88;5049077;28;20055;-76
2023/07/18 01:16:01;;;;;;;2.85;0.70;;;;;;;15.30;100.00;100858.34;5035098;28;20412;-77
2023/07/18 01:18:46;;;;;;;6.90;1.25;;;;;;;15.32;100.00;100859.69;5042791;28;20033;-76
2023/07/18 01:21:32;;;;;;;3.05;1.10;;;;;;;15.30;100.00;100859.16;5042142;28;20440;-76
2023/07/18 01:24:18;;;;;;;6.40;1.20;;;;;;;15.26;100.00;100862.91;5055531;28;20505;-76
2023/07/18 01:27:04;;;;;;;6.07;1.10;;;;;;;15.22;100.00;100845.94;5042414;28;20037;-76
2023/07/18 01:29:51;;;;;;;4.25;0.90;;;;;;;15.19;100.00;100844.59;5030403;28;20108;-76
2023/07/18 01:32:37;;;;;;;6.18;1.00;;;;;;;15.19;100.00;100850.19;5054292;28;20044;-77
2023/07/18 01:35:25;;;;;;;6.20;1.45;;;;;;;15.18;100.00;100847.69;5055687;28;20404;-76
2023/07/18 01:38:11;;;;;;;6.88;1.10;;;;;;;15.13;100.00;100834.69;5020434;28;20030;-77
2023/07/18 01:41:00;;;;;;;5.40;1.05;;;;;;;15.11;100.00;100833.34;5053748;28;20029;-76
2023/07/18 01:43:46;;;;;;;2.15;0.75;;;;;;;15.11;100.00;100836.13;5028304;28;20026;-76
2023/07/18 01:46:32;;;;;;;4.25;1.00;;;;;;;15.09;100.00;100835.63;5041525;28;20055;-76
2023/07/18 01:49:18;;;;;;;3.40;0.70;;;;;;;15.05;100.00;100832.63;5053173;28;20033;-76
2023/07/18 01:52:05;;;;;;;5.03;1.02;;;;;;;15.04;100.00;100827.34;5055869;28;20079;-76
2023/07/18 01:54:50;;;;;;;6.18;1.00;;;;;;;15.05;100.00;100832.63;5027931;28;20124;-76
2023/07/18 01:57:39;;;;;;;4.88;1.02;;;;;;;14.99;100.00;100828.31;5021105;28;20393;-76
2023/07/18 02:00:25;;;;;;;3.67;0.93;;;;;;;14.96;100.00;100820.56;5055120;28;20041;-76
2023/07/18 02:03:12;;;;;;;2.97;0.90;;;;;;;14.93;100.00;100812.78;5056031;28;20036;-76
2023/07/18 02:05:58;;;;;;;4.15;0.80;;;;;;;14.91;100.00;100809.50;5041786;28;20075;-76
2023/07/18 02:08:43;;;;;;;4.75;1.10;;;;;;;14.87;100.00;100809.28;5028118;28;20037;-76
2023/07/18 02:11:29;;;;;;;6.85;1.00;;;;;;;14.85;100.00;100819.97;5027672;28;20029;-76
2023/07/18 02:14:19;;;;;;;4.55;1.02;;;;;;;14.84;100.00;100818.28;5041745;28;20040;-76
2023/07/18 02:17:05;;;;;;;4.38;1.48;;;;;;;14.84;100.00;100800.69;5032138;28;20397;-76
2023/07/18 02:19:51;;;;;;;3.50;1.02;;;;;;;14.80;100.00;100803.31;5042818;28;20112;-76
2023/07/18 02:22:37;;;;;;;2.65;0.90;;;;;;;14.81;100.00;100812.50;5043900;28;20037;-76
2023/07/18 02:25:23;;;;;;;5.07;1.30;;;;;;;14.78;100.00;100800.00;5031131;28;20048;-76
2023/07/18 02:28:10;;;;;;;4.25;1.05;;;;;;;14.74;100.00;100805.41;5056563;28;20094;-76
2023/07/18 02:30:55;;;;;;;2.92;1.00;;;;;;;14.73;100.00;100786.13;5041504;28;20037;-76
2023/07/18 02:33:41;;;;;;;4.55;1.10;;;;;;;14.71;100.00;100777.25;5064339;28;20025;-76
2023/07/18 02:36:28;;;;;;;3.88;0.82;;;;;;;14.70;100.00;100772.78;5031301;28;20029;-76
2023/07/18 02:39:15;;;;;;;3.03;1.10;;;;;;;14.65;100.00;100765.34;5044820;28;20412;-76
2023/07/18 02:42:01;;;;;;;5.95;1.10;;;;;;;14.64;100.00;100768.47;5044576;28;20043;-76
2023/07/18 02:44:47;;;;;;;2.83;0.90;;;;;;;14.61;100.00;100763.50;5049007;28;20060;-76
2023/07/18 02:47:33;;;;;;;3.45;1.10;;;;;;;14.60;100.00;100768.28;5042547;28;20052;-77
2023/07/18 02:50:19;;;;;;;4.32;1.38;;;;;;;14.63;100.00;100755.63;5031112;28;20032;-76
2023/07/18 02:53:04;;;;;;;5.53;1.10;;;;;;;14.62;100.00;100756.75;5033435;28;20026;-77
2023/07/18 02:55:51;;;;;;;6.05;1.02;;;;;;;14.63;100.00;100761.22;5011643;28;20091;-76
2023/07/18 02:58:37;;;;;;;5.78;1.08;;;;;;;14.62;100.00;100753.97;5054356;28;20561;-77
2023/07/18 03:01:24;;;;;;;3.28;0.90;;;;;;;14.61;100.00;100767.13;5043263;28;20506;-76
2023/07/18 03:04:10;;;;;;;4.57;1.02;;;;;;;14.58;100.00;100761.34;5029957;28;20115;-76
2023/07/18 03:06:56;;;;;;;4.28;1.20;;;;;;;14.53;100.00;100757.50;5050176;28;20044;-76
2023/07/18 03:09:42;;;;;;;3.80;1.45;;;;;;;14.54;100.00;100752.75;5032065;28;20449;-76
2023/07/18 03:12:29;;;;;;;3.70;1.20;;;;;;;14.50;100.00;100749.72;5033635;28;20124;-76
2023/07/18 03:15:16;;;;;;;5.65;1.20;;;;;;;14.52;100.00;100730.72;5040099;28;20044;-76
2023/07/18 03:18:02;;;;;;;2.80;1.15;;;;;;;14.51;100.00;100733.78;5034113;28;20068;-76
2023/07/18 03:20:48;;;;;;;4.60;1.20;;;;;;;14.51;100.00;100725.38;5044374;28;20525;-76
2023/07/18 03:23:34;;;;;;;7.65;1.88;;;;;;;14.48;100.00;100718.47;5024814;28;20080;-76
2023/07/18 03:26:20;;;;;;;2.80;1.00;;;;;;;14.45;100.00;100707.91;5049139;28;20059;-76
2023/07/18 03:29:06;;;;;;;3.88;1.00;;;;;;;14.45;100.00;100707.09;5031799;28;20073;-76
2023/07/18 03:31:51;;;;;;;4.50;1.40;;;;;;;14.41;100.00;100717.25;5050578;28;20029;-77
2023/07/18 03:34:37;;;;;;;5.07;0.85;;;;;;;14.43;100.00;100715.81;5038226;28;20020;-76
2023/07/18 03:37:24;;;;;;;3.15;1.05;;;;;;;14.38;100.00;100721.50;5029795;28;20468;-76
2023/07/18 03:40:10;;;;;;;4.35;1.30;;;;;;;14.36;100.00;100718.19;5056363;28;20063;-76
2023/07/18 03:42:56;;;;;;;4.63;1.20;;;;;;;14.33;100.00;100690.91;5041445;28;20034;-76
2023/07/18 03:45:41;;;;;;;4.70;1.33;;;;;;;14.29;100.00;100684.28;5067402;28;20061;-76
2023/07/18 03:48:28;;;;;;;1.95;1.00;;;;;;;14.34;100.00;100708.47;5055742;28;20029;-76
2023/07/18 03:51:14;;;;;;;3.00;1.30;;;;;;;14.35;100.00;100710.13;5060304;28;20040;-76
2023/07/18 03:54:00;;;;;;;3.25;1.10;;;;;;;14.31;100.00;100707.13;5048209;28;20056;-76
2023/07/18 03:56:47;;;;;;;4.10;1.10;;;;;;;14.29;100.00;100701.03;5046600;28;20036;-76
2023/07/18 03:59:33;;;;;;;2.40;0.95;;;;;;;14.27;100.00;100712.53;5046177;28;20115;-76
2023/07/18 04:02:19;;;;;;;4.15;1.30;;;;;;;14.26;100.00;100704.44;5024300;28;20041;-76
2023/07/18 04:05:05;;;;;;;5.35;1.23;;;;;;;14.26;100.00;100704.44;5058027;28;20052;-76
2023/07/18 04:07:51;;;;;;;3.40;1.10;;;;;;;14.28;100.00;100707.78;5043599;28;20413;-76
2023/07/18 04:10:37;;;;;;;2.95;1.20;;;;;;;14.27;100.00;100720.91;5028315;28;20029;-76
2023/07/18 04:13:24;;;;;;;3.78;1.10;;;;;;;14.28;100.00;100722.56;5035042;28;20477;-76
2023/07/18 04:16:10;;;;;;;2.78;1.00;;;;;;;14.28;100.00;100713.34;5019496;28;20113;-76
2023/07/18 04:18:56;;;;;;;2.33;1.10;;;;;;;14.31;100.00;100704.34;5045226;28;20091;-76
2023/07/18 04:21:42;;;;;;;2.08;0.90;;;;;;;14.34;100.00;100694.50;5011388;28;20031;-76
2023/07/18 04:24:29;;;;;;;2.13;1.10;;;;;;;14.32;100.00;100692.03;5046979;28;20393;-76
2023/07/18 04:27:16;;;;;;;3.90;0.90;;;;;;;14.39;100.00;100680.44;5034054;28;20057;-76
2023/07/18 04:30:02;;;;;;;2.33;1.00;;;;;;;14.41;100.00;100675.34;5025161;28;20059;-76
2023/07/18 04:32:48;;;;;;;4.50;1.33;;;;;;;14.40;100.00;100677.34;5040560;28;20036;-76
2023/07/18 04:35:34;;;;;;;3.25;1.20;;;;;;;14.39;100.00;100680.44;5044234;28;20046;-76
2023/07/18 04:38:19;;;;;;;3.83;0.90;;;;;;;14.43;100.00;100682.28;5031266;28;20039;-76
2023/07/18 04:41:05;;;;;;;3.38;1.25;;;;;;;14.42;100.00;100697.38;5037351;28;20032;-76
2023/07/18 04:43:51;;;;;;;2.97;1.25;;;;;;;14.44;100.00;100737.00;5047772;28;20535;-76
2023/07/18 04:46:37;;;;;;;3.00;1.10;;;;;;;14.48;100.00;100729.63;5061657;28;20565;-76
2023/07/18 04:49:24;;;;;;;3.08;1.33;;;;;;;14.49;100.00;100727.69;5042799;28;20461;-76
2023/07/18 04:52:10;;;;;;;2.15;1.02;;;;;;;14.49;100.00;100719.31;5044904;28;20115;-76
2023/07/18 04:54:56;;;;;;;5.03;1.30;;;;;;;14.52;100.00;100722.31;5042784;28;20037;-76
2023/07/18 04:57:41;;;;;;;3.30;1.38;;;;;;;14.53;100.00;100729.56;5031584;28;20640;-76
2023/07/18 05:00:29;;;;;;;3.80;1.10;;;;;;;14.53;100.00;100729.56;5054842;28;20029;-76
2023/07/18 05:03:14;;;;;;;2.92;1.00;;;;;;;14.57;100.00;100729.78;5067704;28;20032;-76
2023/07/18 05:06:00;;;;;;;3.70;1.13;;;;;;;14.65;100.00;100765.34;5039989;28;20075;-76
2023/07/18 05:08:46;;;;;;;4.60;1.63;;;;;;;14.63;100.00;100758.44;5040258;28;20408;-76
2023/07/18 05:11:32;;;;;;;4.97;1.35;;;;;;;14.65;100.00;100764.50;5035954;28;20493;-76
2023/07/18 05:14:18;;;;;;;1.88;1.00;;;;;;;14.67;100.00;100768.66;5027802;28;20042;-76
2023/07/18 05:17:04;;;;;;;4.22;1.25;;;;;;;14.70;100.00;100770.00;5044832;28;20049;-76
2023/07/18 05:19:49;;;;;;;2.97;1.02;;;;;;;14.73;100.00;100760.97;5001930;28;20089;-76
2023/07/18 05:22:35;;;;;;;2.92;1.10;;;;;;;14.78;100.00;100748.84;5027847;28;20029;-76
2023/07/18 05:25:21;;;;;;;2.30;1.00;;;;;;;14.80;100.00;100744.59;5042416;28;20090;-76
2023/07/18 05:28:08;;;;;;;5.03;1.60;;;;;;;14.83;100.00;100740.34;5038680;28;20037;-76
2023/07/18 05:30:53;;;;;;;1.83;0.98;;;;;;;14.84;100.00;100706.44;5036513;28;20106;-76
2023/07/18 05:33:39;;;;;;;2.92;1.10;;;;;;;14.87;100.00;100640.69;5068264;28;20060;-76
2023/07/18 05:36:25;;;;;;;3.35;1.50;;;;;;;14.87;100.00;100629.50;5052229;28;20040;-76
2023/07/18 05:39:11;;;;;;;3.30;1.40;;;;;;;14.89;100.00;100596.47;5060550;28;20032;-76
2023/07/18 05:41:57;;;;;;;3.03;1.20;;;;;;;14.89;100.00;100618.81;5048043;28;20025;-76
2023/07/18 05:44:43;;;;;;;3.95;1.30;;;;;;;14.96;100.00;100678.75;5039793;28;20040;-76
2023/07/18 05:47:29;;;;;;;2.13;1.05;;;;;;;15.00;100.00;100680.91;5043801;28;20025;-76
2023/07/18 05:50:14;;;;;;;3.42;0.98;;;;;;;15.01;100.00;100671.34;5041724;28;20071;-76
2023/07/18 05:53:00;;;;;;;4.97;1.48;;;;;;;15.05;100.00;100664.81;5049746;28;20120;-76
2023/07/18 05:55:46;;;;;;;2.38;1.20;;;;;;;15.09;100.00;100654.63;5038808;28;20397;-76
2023/07/18 05:58:32;;;;;;;4.43;1.25;;;;;;;15.16;100.00;100629.00;5049726;28;20039;-76
2023/07/18 06:01:18;;;;;;;3.65;1.30;;;;;;;15.23;100.00;100643.34;5032602;28;20486;-76
2023/07/18 06:04:03;;;;;;;3.25;1.30;;;;;;;15.31;100.00;100644.53;5052335;28;20418;-76
2023/07/18 06:06:49;;;;;;;5.55;1.30;;;;;;;15.40;100.00;100649.00;5051041;28;20041;-76
2023/07/18 06:09:35;;;;;;;6.15;1.42;;;;;;;15.49;100.00;100662.19;5032557;28;20041;-76
2023/07/18 06:12:21;;;;;;;5.40;1.55;;;;;;;15.58;100.00;100655.50;5067499;28;20061;-76
2023/07/18 06:15:07;;;;;;;3.40;1.25;;;;;;;15.76;100.00;100659.19;5046160;28;20040;-76
2023/07/18 06:17:53;;;;;;;5.25;1.50;;;;;;;15.95;100.00;100644.09;5070641;28;20506;-77
2023/07/18 06:20:43;;;;;;;5.13;1.40;;;;;;;16.16;100.00;100647.91;5057913;28;20041;-77
2023/07/18 06:23:30;;;;;;;4.22;1.23;;;;;;;16.43;100.00;100643.94;5051896;28;20544;-77
2023/07/18 06:26:15;;;;;;;5.78;1.75;;;;;;;16.68;100.00;100647.88;5058839;28;20376;-77
2023/07/18 06:29:01;;;;;;;6.20;1.30;;;;;;;16.95;100.00;100640.28;5052255;28;20033;-77
2023/07/18 06:31:48;;;;;;;5.10;1.40;;;;;;;17.19;100.00;100654.59;5056197;28;20119;-77
2023/07/18 06:34:40;;;;;;;3.92;1.55;;;;;;;17.47;100.00;100634.50;5048139;28;20234;-77
2023/07/18 06:37:26;;;;;;;4.97;1.67;;;;;;;17.73;100.00;100641.94;5058565;28;20549;-77
2023/07/18 06:40:12;;;;;;;4.47;1.42;;;;;;;17.98;100.00;100649.41;5037657;28;20441;-77
2023/07/18 06:42:59;;;;;;;6.22;1.40;;;;;;;18.24;100.00;100642.78;5047501;28;20033;-77
2023/07/18 06:45:45;;;;;;;3.67;1.50;;;;;;;18.50;100.00;100645.41;5078332;28;20139;-77
2023/07/18 06:48:31;;;;;;;5.25;1.60;;;;;;;18.72;100.00;100638.53;5048303;28;20117;-77
2023/07/18 06:51:17;;;;;;;3.03;1.30;;;;;;;18.97;100.00;100645.09;5034085;28;20200;-77
2023/07/18 06:54:02;;;;;;;3.85;1.38;;;;;;;19.22;100.00;100645.97;5063355;28;20079;-77
2023/07/18 06:56:48;;;;;;;5.68;1.30;;;;;;;19.47;100.00;100646.84;5064733;28;20032;-77
2023/07/18 06:59:34;;;;;;;6.55;1.45;;;;;;;19.68;100.00;100645.94;5050666;28;20041;-77
2023/07/18 07:02:20;;;;;;;6.13;1.58;;;;;;;19.91;100.00;100661.19;5032207;28;20123;-77
2023/07/18 07:05:06;;;;;;;4.25;1.33;;;;;;;20.10;100.00;100660.56;5052958;28;20495;-77
2023/07/18 07:07:53;;;;;;;5.68;1.50;;;;;;;20.33;100.00;100657.25;5055525;28;20028;-77
2023/07/18 07:10:39;;;;;;;6.70;1.75;;;;;;;20.50;100.00;100656.94;5040201;28;20040;-77
2023/07/18 07:13:26;;;;;;;4.35;1.33;;;;;;;20.70;100.00;100658.78;5063658;28;20102;-77
2023/07/18 07:16:11;;;;;;;5.68;1.40;;;;;;;20.89;100.00;100660.91;5063239;28;20067;-78
2023/07/18 07:18:57;;;;;;;4.13;1.40;;;;;;;21.15;100.00;100648.34;5050502;28;20057;-77
2023/07/18 07:21:43;;;;;;;4.80;1.65;;;;;;;21.39;99.87;100641.72;5047873;28;20040;-77
2023/07/18 07:24:30;;;;;;;8.65;1.60;;;;;;;21.51;97.51;100638.00;5035550;28;20104;-78
2023/07/18 07:27:16;;;;;;;3.88;1.30;;;;;;;21.68;97.29;100628.31;5057375;28;20035;-78
2023/07/18 07:30:02;;;;;;;7.53;2.08;;;;;;;21.82;96.37;100635.13;5033001;28;20036;-74
2023/07/18 07:32:50;;;;;;;4.28;1.70;;;;;;;21.96;96.23;100645.94;5050401;28;20028;-78
2023/07/18 07:35:35;;;;;;;4.25;1.60;;;;;;;22.14;93.63;100637.03;5053560;28;20056;-78
2023/07/18 07:38:21;;;;;;;4.15;1.40;;;;;;;22.39;89.79;100629.13;5069463;28;20028;-79
2023/07/18 07:41:07;;;;;;;4.95;1.45;;;;;;;22.62;89.46;100635.72;5051431;28;20047;-79
2023/07/18 07:43:53;;;;;;;3.42;1.38;;;;;;;22.83;88.42;100621.16;5051780;28;20099;-79
2023/07/18 07:46:39;;;;;;;4.20;1.40;;;;;;;22.93;86.08;100620.53;5057977;28;20115;-79
2023/07/18 07:49:24;;;;;;;2.92;1.48;;;;;;;23.13;84.20;100618.50;5046513;28;20123;-78
2023/07/18 07:52:11;;;;;;;4.75;1.45;;;;;;;23.31;84.59;100627.31;5052463;28;20063;-78
2023/07/18 07:54:56;;;;;;;2.38;1.10;;;;;;;23.51;83.13;100621.56;5043808;28;20021;-71
2023/07/18 07:57:42;;;;;;;5.78;1.67;;;;;;;23.64;81.50;100614.50;5040065;28;20123;-72
2023/07/18 08:00:28;;;;;;;6.30;1.60;;;;;;;23.70;80.25;100612.16;5060481;28;20086;-71
2023/07/18 08:03:14;;;;;;;6.72;1.75;;;;;;;23.89;79.57;100608.44;5105960;28;20228;-71
2023/07/18 08:06:00;;;;;;;5.03;1.38;;;;;;;24.07;78.51;100604.66;5069064;28;20127;-72
2023/07/18 08:08:46;;;;;;;5.28;1.50;;;;;;;24.19;75.90;100608.47;5090243;28;20077;-71
2023/07/18 08:11:32;;;;;;;4.28;1.20;;;;;;;24.45;76.98;100608.41;5073924;28;20027;-71
2023/07/18 08:14:17;;;;;;;5.15;1.77;;;;;;;24.66;74.69;100610.72;5074641;28;20040;-72
2023/07/18 08:17:04;;;;;;;6.50;1.60;;;;;;;24.85;74.88;100606.03;5079752;28;20025;-72
2023/07/18 08:19:50;;;;;;;4.45;1.45;;;;;;;25.01;75.39;100595.25;5083418;28;20047;-72
2023/07/18 08:22:36;;;;;;;5.13;1.40;;;;;;;25.20;73.93;100594.25;5092470;28;20036;-72
2023/07/18 08:25:21;;;;;;;4.63;1.80;;;;;;;25.38;72.00;100583.00;5104785;28;20086;-72
2023/07/18 08:28:07;;;;;;;3.15;1.30;;;;;;;25.58;69.55;100592.13;5090988;28;20031;-79
2023/07/18 08:30:53;;;;;;;7.40;1.83;;;;;;;25.65;67.70;100583.63;5072667;28;20073;-79
2023/07/18 08:33:39;;;;;;;5.95;1.58;;;;;;;25.84;68.58;100577.69;5083744;28;20035;-79
2023/07/18 08:36:25;;;;;;;6.88;1.60;;;;;;;26.05;68.08;100573.38;5081260;28;20038;-79
2023/07/18 08:39:11;;;;;;;5.10;1.70;;;;;;;26.16;64.41;100564.84;5098355;28;20091;-79
2023/07/18 08:41:57;;;;;;;5.07;1.48;;;;;;;26.39;66.06;100564.56;5084664;28;20035;-79
2023/07/18 08:44:45;;;;;;;7.97;1.88;;;;;;;26.59;67.40;100563.03;5055068;28;20491;-79
2023/07/18 08:47:31;;;;;;;4.22;1.60;;;;;;;26.82;61.99;100556.97;5073762;28;20135;-79
2023/07/18 08:50:17;;;;;;;3.38;1.40;;;;;;;26.98;60.77;100558.63;5067174;28;20494;-79
2023/07/18 08:53:05;;;;;;;4.80;1.48;;;;;;;27.22;61.90;100563.59;5085635;28;20027;-79
2023/07/18 08:55:51;;;;;;;6.80;1.40;;;;;;;27.39;60.66;100554.19;5102101;28;20036;-79
2023/07/18 08:58:37;;;;;;;6.30;1.95;;;;;;;27.43;57.00;100557.03;5087014;28;20396;-79
2023/07/18 09:01:23;;;;;;;3.03;1.42;;;;;;;27.59;59.31;100559.47;5066990;28;20051;-79
2023/07/18 09:04:10;;;;;;;6.35;1.58;;;;;;;27.61;55.23;100557.84;5094795;28;20047;-79
2023/07/18 09:06:59;;;;;;;5.28;1.48;;;;;;;27.66;53.93;100553.75;5072820;28;20411;-79
2023/07/18 09:09:46;;;;;;;3.67;1.40;;;;;;;27.81;56.78;100552.53;5074592;28;20099;-79
2023/07/18 09:12:35;;;;;;;4.10;1.33;;;;;;;27.97;57.51;100548.41;5067312;28;20481;-79
2023/07/18 09:15:21;;;;;;;3.10;1.20;;;;;;;28.09;55.17;100539.41;5080239;28;20462;-79
2023/07/18 09:18:08;;;;;;;4.18;1.60;;;;;;;28.18;53.44;100536.09;5059970;28;20031;-79
2023/07/18 09:20:54;;;;;;;4.38;1.30;;;;;;;28.28;54.11;100541.78;5075276;28;20040;-79
2023/07/18 09:23:41;;;;;;;4.32;1.70;;;;;;;28.36;52.63;100542.56;5090332;28;20103;-79
2023/07/18 09:26:26;;;;;;;5.50;1.40;;;;;;;28.39;51.49;100546.59;5049108;28;20046;-79
2023/07/18 09:29:12;;;;;;;5.55;1.60;;;;;;;28.46;48.88;100544.56;5072975;28;20039;-79
2023/07/18 09:31:58;;;;;;;4.13;1.27;;;;;;;28.66;52.32;100539.13;5064838;28;20036;-78
2023/07/18 09:34:51;;;;;;;3.28;1.42;;;;;;;28.83;53.96;100537.41;5070020;28;20032;-75
2023/07/18 09:37:47;;;;;;;4.88;1.45;;;;;;;29.05;52.14;100537.28;5064941;28;20043;-78
2023/07/18 09:40:33;;;;;;;5.82;1.20;;;;;;;29.23;50.64;100545.72;5078358;28;20518;-78
2023/07/18 09:43:19;;;;;;;5.60;1.30;;;;;;;29.44;50.09;100536.13;5083314;28;20464;-74
2023/07/18 09:46:05;;;;;;;6.00;1.40;;;;;;;29.56;49.00;100532.72;5051775;28;20121;-77
2023/07/18 09:48:51;;;;;;;4.82;1.20;;;;;;;29.75;51.05;100537.06;5076050;28;20046;-78
2023/07/18 09:51:38;;;;;;;3.85;1.35;;;;;;;29.89;50.68;100534.03;5072095;28;20027;-77
2023/07/18 09:54:25;;;;;;;3.28;1.10;;;;;;;30.05;49.63;100542.84;5056551;28;20035;-78
2023/07/18 09:57:11;;;;;;;4.72;1.25;;;;;;;30.20;47.86;100531.22;5078317;28;20468;-78
2023/07/18 09:59:58;;;;;;;4.18;1.15;;;;;;;30.41;46.75;100535.91;5059388;28;20033;-78
2023/07/18 10:02:44;;;;;;;2.92;1.02;;;;;;;30.61;45.66;100533.16;5080543;28;20040;-78
2023/07/18 10:05:31;;;;;;;4.22;1.35;;;;;;;30.78;46.54;100532.06;5052684;28;20097;-78
2023/07/18 10:08:17;;;;;;;5.10;1.20;;;;;;;30.88;43.32;100530.34;5076920;28;20483;-77
2023/07/18 10:11:03;;;;;;;3.38;1.10;;;;;;;31.06;45.95;100532.91;5075761;28;20028;-78
2023/07/18 10:13:55;;;;;;;3.35;1.30;;;;;;;31.22;46.15;100532.22;5055891;28;20047;-78
2023/07/18 10:16:41;;;;;;;5.43;1.40;;;;;;;31.40;45.47;100532.78;5092403;28;20478;-78
2023/07/18 10:19:28;;;;;;;4.38;1.10;;;;;;;31.57;45.16;100530.84;5068275;28;20488;-78
2023/07/18 10:22:27;;;;;;;3.60;1.42;;;;;;;31.70;41.56;100523.19;5056609;28;20036;-77
2023/07/18 10:25:14;;;;;;;2.55;1.38;;;;;;;31.82;43.02;100513.94;5077725;28;20043;-78
2023/07/18 10:28:00;;;;;;;3.55;1.23;;;;;;;32.04;44.09;100519.28;5070775;28;20108;-78
2023/07/18 10:30:46;;;;;;;4.55;1.20;;;;;;;32.22;43.62;100522.56;5069053;28;20032;-77
2023/07/18 10:33:32;;;;;;;4.97;1.30;;;;;;;32.35;41.07;100521.91;5058764;28;20028;-78
2023/07/18 10:36:24;;;;;;;3.80;1.42;;;;;;;32.44;42.20;100516.38;5049590;28;20088;-78
2023/07/18 10:39:12;;;;;;;4.53;1.55;;;;;;;32.55;42.70;100516.16;5073849;28;20063;-78
2023/07/18 10:42:30;;;;;;;6.82;1.38;;;;;;;32.55;40.58;100511.22;5069477;28;20032;-78
2023/07/18 10:45:16;;;;;;;4.03;1.35;;;;;;;32.66;40.75;100511.78;5097354;28;20114;-78
2023/07/18 10:48:10;;;;;;;2.83;1.10;;;;;;;32.67;40.32;100515.44;5058512;28;20082;-78
2023/07/18 10:50:56;;;;;;;3.83;1.08;;;;;;;32.74;40.27;100508.75;5055288;28;20400;-78
2023/07/18 10:53:43;;;;;;;3.65;1.20;;;;;;;32.68;39.81;100509.25;5095527;28;20119;-78
2023/07/18 10:56:29;;;;;;;3.78;1.40;;;;;;;32.70;39.15;100503.84;5083552;28;20086;-78
2023/07/18 10:59:15;;;;;;;4.53;1.20;;;;;;;32.75;39.86;100504.59;5068854;28;20521;-78
2023/07/18 11:02:00;;;;;;;4.22;1.65;;;;;;;32.74;38.38;100495.16;5061415;28;20042;-78
2023/07/18 11:04:47;;;;;;;7.53;1.20;;;;;;;32.83;39.49;100497.41;5071018;28;20087;-78
2023/07/18 11:07:34;;;;;;;4.45;1.10;;;;;;;32.94;39.07;100486.44;5078506;28;20483;-78
2023/07/18 11:10:20;;;;;;;3.55;1.40;;;;;;;33.02;38.23;100479.28;5079189;28;20071;-78
2023/07/18 11:13:06;;;;;;;5.57;1.10;;;;;;;33.10;39.74;100486.47;5070308;28;20048;-78
2023/07/18 11:15:51;;;;;;;4.85;1.33;;;;;;;33.20;38.18;100478.03;5106019;28;20102;-78
2023/07/18 11:18:41;;;;;;;3.72;1.40;;;;;;;33.27;38.40;100484.41;5054195;28;20071;-78
2023/07/18 11:21:28;;;;;;;5.53;1.40;;;;;;;33.35;38.43;100464.88;5091413;28;20035;-78
2023/07/18 11:24:13;;;;;;;3.38;1.20;;;;;;;33.45;37.92;100466.63;5071150;28;20037;-78
2023/07/18 11:27:22;;;;;;;3.75;1.30;;;;;;;33.58;38.50;100461.78;5093505;28;20036;-78
2023/07/18 11:30:09;;;;;;;1.98;1.00;;;;;;;33.65;37.64;100457.06;5071535;28;20081;-78
2023/07/18 11:32:54;;;;;;;4.55;1.52;;;;;;;33.70;37.65;100460.22;5070355;28;20027;-78
2023/07/18 11:35:47;;;;;;;2.55;1.30;;;;;;;33.81;37.13;100451.25;5075829;28;20054;-78
2023/07/18 11:38:33;;;;;;;5.43;1.08;;;;;;;33.95;36.95;100453.72;5058231;28;20024;-78
2023/07/18 11:41:40;;;;;;;3.25;1.20;;;;;;;34.09;35.63;100451.72;5055028;28;20032;-78
2023/07/18 11:44:26;;;;;;;5.88;1.77;;;;;;;34.18;36.13;100457.59;5050577;28;20038;-78
2023/07/18 11:47:12;;;;;;;4.00;1.10;;;;;;;34.28;35.25;100450.69;5072963;28;20111;-78
2023/07/18 11:50:00;;;;;;;3.60;1.17;;;;;;;34.39;35.00;100453.25;5082982;28;20024;-78
2023/07/18 11:52:48;;;;;;;3.45;1.13;;;;;;;34.43;35.07;100442.41;5046137;28;20587;-78
2023/07/18 11:55:34;;;;;;;4.70;1.80;;;;;;;34.54;35.10;100442.84;5082659;28;20042;-78
2023/07/18 11:58:20;;;;;;;3.47;1.20;;;;;;;34.55;33.92;100429.25;5068017;28;20038;-78
2023/07/18 12:01:05;;;;;;;1.90;1.20;;;;;;;34.58;34.46;100440.72;5080695;28;20055;-78
2023/07/18 12:03:51;;;;;;;3.53;1.30;;;;;;;34.67;33.13;100428.47;5063259;28;20036;-78
2023/07/18 12:06:37;;;;;;;3.85;1.02;;;;;;;34.76;33.63;100424.88;5071720;28;20488;-78
2023/07/18 12:09:23;;;;;;;3.28;1.10;;;;;;;34.78;34.20;100433.88;5070954;28;20036;-78
2023/07/18 12:12:09;;;;;;;6.53;1.48;;;;;;;34.85;33.89;100428.69;5050671;28;20083;-78
2023/07/18 12:14:56;;;;;;;5.00;1.30;;;;;;;34.96;34.53;100421.72;5021823;28;20565;-78
2023/07/18 12:17:41;;;;;;;3.92;1.10;;;;;;;35.04;34.71;100421.00;5044140;28;20083;-78
2023/07/18 12:20:27;;;;;;;3.90;1.20;;;;;;;35.18;33.41;100418.94;5052114;28;20092;-78
2023/07/18 12:23:13;;;;;;;2.60;1.10;;;;;;;35.29;33.37;100423.03;5049305;28;20068;-78
2023/07/18 12:25:59;;;;;;;5.22;1.30;;;;;;;35.36;31.95;100411.25;5046691;28;20048;-78
2023/07/18 12:28:45;;;;;;;3.28;1.40;;;;;;;35.41;32.61;100412.75;5042359;28;20144;-78
2023/07/18 12:31:34;;;;;;;5.38;1.50;;;;;;;35.47;32.09;100402.19;5050997;28;20115;-78
2023/07/18 12:34:20;;;;;;;2.45;1.20;;;;;;;35.53;31.90;100397.41;5047060;28;20515;-78
2023/07/18 12:37:06;;;;;;;3.30;1.08;;;;;;;35.57;31.28;100411.75;5061885;28;20071;-78
2023/07/18 12:39:52;;;;;;;2.88;1.17;;;;;;;35.64;31.47;100402.81;5038754;28;20037;-78
2023/07/18 12:42:38;;;;;;;3.30;1.38;;;;;;;35.63;30.88;100398.31;5042859;28;20405;-78
2023/07/18 12:45:28;;;;;;;3.10;1.00;;;;;;;35.66;31.65;100405.22;5016912;28;20025;-78
2023/07/18 12:48:15;;;;;;;2.83;1.35;;;;;;;35.65;31.29;100404.44;5044901;28;20032;-78
2023/07/18 12:51:02;;;;;;;4.35;1.67;;;;;;;35.72;32.03;100398.41;5041663;28;20492;-78